Weather at Remontées Mécaniques Heliport

Public forecast

Using degrees Celsius for public forecast. Weather courtesy of forecast.io.

Closest aviation weather report (METAR) to Remontées Mécaniques Heliport

Closest report is Geneva Cointrin International Airport, 20.4 nm (37.7 km) WNW. Retrieved 2020/09/20 19:20 UTC (0 seconds ago):

LSGG 201920Z 24006KT 6000 RA FEW005 FEW040CB SCT060 BKN085 18/17 Q1017 TEMPO TSRA

Closest aviation forecast (TAF) to Remontées Mécaniques Heliport

Closest forecast is Geneva Cointrin International Airport, 20.4 nm (37.7 km) WNW. Retrieved 2020/09/20 18:33 UTC (37 minutes ago):

TAF TAF LSGG 201725Z 2018/2124 VRB03KT 9999 FEW030 SCT100 TX23/2115Z TN14/2105Z TEMPO 2018/2023 SHRA FEW040TCU PROB30 TEMPO 2018/2021 TSRA FEW045CB BECMG 2022/2101 4500 BR PROB30 TEMPO 2101/2107 2500 BCFG BECMG 2107/2109 23007KT 9999 TEMPO 2112/2118 SHRA FEW040TCU